Time;durP1;ratioP1;P1;durP2;ratioP2;P2;SDS_P1;SDS_P2;PMS_P1;PMS_P2;Temp;Humidity;BMP_temperature;BMP_pressure;BME280_temperature;BME280_humidity;BME280_pressure;Samples;Min_cycle;Max_cycle;Signal;HPM_P1;HPM_P2
2023/10/14 00:01:36;;;;;;;12.45;3.63;;;;;14.80;95743.00;;;;8338142;28;20224;-62
2023/10/14 00:05:39;;;;;;;5.65;3.25;;;;;15.10;95735.00;;;;8335809;28;20193;-63
2023/10/14 00:09:43;;;;;;;5.10;3.17;;;;;15.40;95741.00;;;;8334393;28;20203;-62
2023/10/14 00:13:48;;;;;;;4.53;3.30;;;;;15.60;95744.00;;;;8340390;28;20288;-63
2023/10/14 00:17:57;;;;;;;10.50;3.53;;;;;15.90;95736.00;;;;8344675;28;20255;-62
2023/10/14 00:22:04;;;;;;;6.15;3.33;;;;;16.10;95738.00;;;;8336080;28;20792;-62
2023/10/14 00:26:14;;;;;;;5.75;3.05;;;;;16.40;95738.00;;;;8342179;28;20654;-63
2023/10/14 00:30:19;;;;;;;7.93;3.75;;;;;16.60;95735.00;;;;8345023;28;20594;-62
2023/10/14 00:34:25;;;;;;;10.10;3.67;;;;;16.90;95726.00;;;;8335365;28;20819;-63
2023/10/14 00:38:34;;;;;;;5.85;3.13;;;;;17.00;95726.00;;;;8339327;28;20232;-63
2023/10/14 00:42:37;;;;;;;8.50;3.55;;;;;17.10;95733.00;;;;8327456;28;20193;-63
2023/10/14 00:46:48;;;;;;;9.00;3.25;;;;;17.30;95726.00;;;;8337536;28;20204;-63
2023/10/14 00:50:53;;;;;;;6.70;2.92;;;;;17.60;95715.00;;;;8341138;28;20247;-62
2023/10/14 00:54:59;;;;;;;12.88;3.13;;;;;17.80;95718.00;;;;8337865;28;20198;-62
2023/10/14 00:59:03;;;;;;;8.43;3.28;;;;;18.10;95717.00;;;;8325171;28;20260;-63
2023/10/14 01:03:10;;;;;;;5.70;3.58;;;;;18.30;95716.00;;;;8334967;28;20235;-62
2023/10/14 01:07:15;;;;;;;6.50;3.60;;;;;18.40;95705.00;;;;8342884;28;20197;-63
2023/10/14 01:11:20;;;;;;;6.50;3.20;;;;;18.50;95699.00;;;;8338086;28;20203;-63
2023/10/14 01:15:29;;;;;;;11.93;3.85;;;;;18.70;95697.00;;;;8336251;28;20557;-62
2023/10/14 01:19:32;;;;;;;4.80;3.17;;;;;18.80;95684.00;;;;8336335;28;20260;-63
2023/10/14 01:23:37;;;;;;;6.72;3.35;;;;;19.00;95698.00;;;;8328449;28;20215;-62
2023/10/14 01:27:43;;;;;;;7.05;3.78;;;;;19.10;95685.00;;;;8339153;28;20296;-62
2023/10/14 01:32:06;;;;;;;10.60;3.63;;;;;19.20;95676.00;;;;8334192;28;20251;-63
2023/10/14 01:36:11;;;;;;;11.10;3.72;;;;;19.40;95665.00;;;;8338738;28;20196;-62
2023/10/14 01:40:24;;;;;;;4.53;3.22;;;;;19.60;95662.00;;;;8339689;28;20320;-62
2023/10/14 01:44:28;;;;;;;9.65;3.78;;;;;19.70;95663.00;;;;8337773;28;20193;-62
2023/10/14 01:48:31;;;;;;;7.82;3.50;;;;;19.90;95665.00;;;;8320197;28;20201;-62
2023/10/14 01:52:35;;;;;;;8.48;4.00;;;;;20.00;95675.00;;;;8330632;28;20208;-62
2023/10/14 01:56:40;;;;;;;6.43;3.08;;;;;20.10;95666.00;;;;8337821;28;20916;-62
2023/10/14 02:00:46;;;;;;;5.43;3.50;;;;;20.20;95673.00;;;;8337970;28;20231;-63
2023/10/14 02:04:56;;;;;;;10.95;3.30;;;;;20.30;95684.00;;;;8332686;28;20221;-63
2023/10/14 02:09:00;;;;;;;5.18;3.30;;;;;20.30;95677.00;;;;8345804;28;20324;-63
2023/10/14 02:13:05;;;;;;;5.43;3.17;;;;;20.40;95682.00;;;;8343718;28;20197;-62
2023/10/14 02:17:10;;;;;;;8.82;3.33;;;;;20.40;95674.00;;;;8342806;28;20650;-63
2023/10/14 02:21:16;;;;;;;5.25;3.60;;;;;20.50;95660.00;;;;8341045;28;20231;-62
2023/10/14 02:25:20;;;;;;;4.80;3.10;;;;;20.50;95680.00;;;;8344932;28;20686;-62
2023/10/14 02:29:25;;;;;;;10.15;3.53;;;;;20.60;95668.00;;;;8345396;28;20293;-63
2023/10/14 02:33:28;;;;;;;8.13;3.65;;;;;20.50;95665.00;;;;8338601;28;20288;-63
2023/10/14 02:37:31;;;;;;;6.32;3.50;;;;;20.50;95667.00;;;;8348237;28;20651;-63
2023/10/14 02:41:40;;;;;;;6.28;3.30;;;;;20.50;95671.00;;;;8342604;28;20211;-62
2023/10/14 02:45:46;;;;;;;5.88;3.92;;;;;20.50;95668.00;;;;8336973;28;20533;-62
2023/10/14 02:49:55;;;;;;;7.32;3.85;;;;;20.60;95675.00;;;;8339862;28;20195;-63
2023/10/14 02:54:04;;;;;;;8.00;3.40;;;;;20.50;95667.00;;;;8337383;28;20292;-62
2023/10/14 02:58:07;;;;;;;12.45;3.95;;;;;20.60;95668.00;;;;8342021;28;20674;-63
2023/10/14 03:02:25;;;;;;;12.38;3.63;;;;;20.50;95675.00;;;;8359084;23;20236;-63
2023/10/14 03:06:30;;;;;;;7.10;3.78;;;;;20.60;95681.00;;;;8339559;28;20224;-62
2023/10/14 03:10:39;;;;;;;9.95;3.95;;;;;20.50;95677.00;;;;8345179;28;20569;-63
2023/10/14 03:14:43;;;;;;;8.18;3.95;;;;;20.10;95676.00;;;;8341182;28;20224;-62
2023/10/14 03:18:47;;;;;;;7.75;3.92;;;;;20.00;95674.00;;;;8336182;28;20619;-62
2023/10/14 03:22:51;;;;;;;10.75;3.83;;;;;20.10;95668.00;;;;8342036;28;20296;-63
2023/10/14 03:27:01;;;;;;;6.47;3.75;;;;;20.10;95669.00;;;;8339448;28;20205;-63
2023/10/14 03:31:08;;;;;;;9.82;3.30;;;;;20.10;95669.00;;;;8336013;28;20296;-63
2023/10/14 03:35:13;;;;;;;9.40;4.05;;;;;20.10;95670.00;;;;8339325;28;20201;-63
2023/10/14 03:39:21;;;;;;;8.00;3.95;;;;;20.10;95667.00;;;;8337698;28;20225;-62
2023/10/14 03:43:27;;;;;;;10.48;3.92;;;;;20.10;95657.00;;;;8337571;28;20208;-61
2023/10/14 03:47:34;;;;;;;8.18;3.80;;;;;20.10;95657.00;;;;8344070;28;20300;-62
2023/10/14 03:51:39;;;;;;;6.32;3.55;;;;;20.10;95652.00;;;;8339449;28;20614;-62
2023/10/14 03:55:43;;;;;;;15.07;3.22;;;;;20.10;95655.00;;;;8333948;28;20284;-61
2023/10/14 03:59:48;;;;;;;7.35;3.25;;;;;20.20;95655.00;;;;8332887;28;20256;-62
2023/10/14 04:03:53;;;;;;;8.25;3.80;;;;;20.10;95650.00;;;;8339265;28;20231;-61
2023/10/14 04:07:57;;;;;;;6.03;3.90;;;;;20.10;95648.00;;;;8338702;28;20563;-62
2023/10/14 04:12:01;;;;;;;8.98;3.78;;;;;20.00;95641.00;;;;8341434;28;20827;-63
2023/10/14 04:16:07;;;;;;;6.05;3.50;;;;;19.90;95651.00;;;;8344954;28;20193;-63
2023/10/14 04:20:29;;;;;;;6.00;3.33;;;;;19.90;95646.00;;;;8340405;28;20279;-63
2023/10/14 04:24:45;;;;;;;6.97;4.00;;;;;19.80;95647.00;;;;8342728;28;20721;-62
2023/10/14 04:28:54;;;;;;;7.60;4.03;;;;;19.70;95644.00;;;;8345535;28;20200;-62
2023/10/14 04:33:04;;;;;;;7.85;3.40;;;;;19.60;95634.00;;;;8343126;28;20869;-62
2023/10/14 04:37:08;;;;;;;13.15;4.35;;;;;19.60;95636.00;;;;8343266;28;20258;-62
2023/10/14 04:41:14;;;;;;;8.07;4.10;;;;;19.50;95631.00;;;;8338331;28;20236;-61
2023/10/14 04:45:17;;;;;;;7.13;3.88;;;;;19.40;95629.00;;;;8335793;28;20252;-62
2023/10/14 04:49:35;;;;;;;7.75;3.70;;;;;19.40;95619.00;;;;8324087;28;20698;-62
2023/10/14 04:53:43;;;;;;;9.43;4.15;;;;;19.20;95602.00;;;;8330836;28;20656;-61
2023/10/14 04:58:05;;;;;;;7.18;3.72;;;;;19.20;95606.00;;;;8331419;28;21026;-60
2023/10/14 05:02:11;;;;;;;6.65;3.92;;;;;19.20;95599.00;;;;8339956;28;20243;-61
2023/10/14 05:06:17;;;;;;;10.00;4.20;;;;;19.20;95602.00;;;;8336150;28;20200;-60
2023/10/14 05:10:20;;;;;;;11.63;4.65;;;;;19.20;95606.00;;;;8337802;28;20196;-61
2023/10/14 05:14:34;;;;;;;7.15;3.75;;;;;19.20;95593.00;;;;8336003;28;20301;-63
2023/10/14 05:18:38;;;;;;;9.02;4.95;;;;;19.20;95593.00;;;;8340601;28;20224;-62
2023/10/14 05:22:42;;;;;;;9.55;4.53;;;;;19.20;95591.00;;;;8340216;28;20203;-61
2023/10/14 05:26:46;;;;;;;9.30;4.45;;;;;19.20;95595.00;;;;8343799;28;20308;-61
2023/10/14 05:30:52;;;;;;;7.50;4.28;;;;;19.20;95604.00;;;;8340899;28;20289;-63
2023/10/14 05:34:57;;;;;;;7.47;4.25;;;;;19.20;95592.00;;;;8332117;28;20193;-60
2023/10/14 05:39:02;;;;;;;7.32;3.88;;;;;19.10;95584.00;;;;8347131;28;20228;-61
2023/10/14 05:43:06;;;;;;;8.38;4.30;;;;;19.10;95597.00;;;;8337648;28;20208;-61
2023/10/14 05:47:11;;;;;;;10.77;4.30;;;;;19.10;95614.00;;;;8336905;28;20196;-60
2023/10/14 05:51:15;;;;;;;6.53;4.20;;;;;19.10;95607.00;;;;8339737;28;20202;-60
2023/10/14 05:55:19;;;;;;;6.43;4.13;;;;;19.10;95616.00;;;;8340352;28;20227;-61
2023/10/14 05:59:23;;;;;;;7.28;4.05;;;;;19.20;95622.00;;;;8345041;28;20274;-60
2023/10/14 06:03:28;;;;;;;9.95;5.05;;;;;19.30;95623.00;;;;8335624;28;20734;-61
2023/10/14 06:07:34;;;;;;;8.48;4.45;;;;;19.30;95620.00;;;;8337838;28;20239;-62
2023/10/14 06:11:38;;;;;;;8.50;4.80;;;;;19.40;95621.00;;;;8340183;28;20201;-61
2023/10/14 06:15:42;;;;;;;8.73;4.22;;;;;19.50;95631.00;;;;8344297;28;20204;-61
2023/10/14 06:19:46;;;;;;;11.98;4.65;;;;;19.50;95635.00;;;;8344323;28;20316;-61
2023/10/14 06:23:49;;;;;;;8.30;4.20;;;;;19.60;95641.00;;;;8340844;28;20195;-61
2023/10/14 06:27:53;;;;;;;12.27;4.68;;;;;19.70;95656.00;;;;8343175;28;20626;-62
2023/10/14 06:31:56;;;;;;;12.05;4.30;;;;;19.80;95677.00;;;;8341147;28;20198;-61
2023/10/14 06:36:23;;;;;;;7.57;4.43;;;;;19.80;95684.00;;;;8338581;28;20201;-63
2023/10/14 06:40:35;;;;;;;7.53;4.55;;;;;19.90;95706.00;;;;8339319;28;20221;-63
2023/10/14 06:44:45;;;;;;;6.85;3.90;;;;;20.00;95719.00;;;;8344158;28;20724;-62
2023/10/14 06:48:52;;;;;;;6.72;4.43;;;;;20.10;95741.00;;;;8342204;28;20211;-63
2023/10/14 06:52:58;;;;;;;8.80;4.30;;;;;20.10;95746.00;;;;8339623;28;20201;-62
2023/10/14 06:57:07;;;;;;;7.80;3.83;;;;;20.10;95774.00;;;;8339942;28;20745;-63
2023/10/14 07:01:11;;;;;;;6.90;2.95;;;;;19.80;95775.00;;;;8339541;28;20226;-63
2023/10/14 07:05:15;;;;;;;8.90;3.33;;;;;18.80;95749.00;;;;8342098;28;20225;-62
2023/10/14 07:09:23;;;;;;;8.88;2.97;;;;;18.20;95746.00;;;;8343028;28;20208;-62
2023/10/14 07:13:27;;;;;;;4.07;2.95;;;;;17.90;95744.00;;;;8336951;28;21599;-62
2023/10/14 07:17:30;;;;;;;5.47;3.22;;;;;18.00;95740.00;;;;8341362;28;20346;-62
2023/10/14 07:21:33;;;;;;;3.45;3.00;;;;;18.10;95736.00;;;;8337669;28;20311;-62
2023/10/14 07:25:40;;;;;;;6.07;2.70;;;;;18.20;95734.00;;;;8338664;28;20577;-62
2023/10/14 07:29:45;;;;;;;5.95;3.10;;;;;18.40;95748.00;;;;8342382;28;20688;-62
2023/10/14 07:33:49;;;;;;;4.78;3.03;;;;;18.60;95757.00;;;;8325277;28;20193;-62
2023/10/14 07:37:52;;;;;;;4.03;3.08;;;;;18.80;95765.00;;;;8343372;28;20232;-62
2023/10/14 07:41:57;;;;;;;3.78;2.78;;;;;18.90;95759.00;;;;8340255;28;20307;-63
2023/10/14 07:46:02;;;;;;;3.78;3.30;;;;;19.00;95761.00;;;;8340848;28;20965;-63
2023/10/14 07:50:09;;;;;;;4.95;3.17;;;;;19.20;95773.00;;;;8328421;28;20558;-64
2023/10/14 07:54:12;;;;;;;4.93;3.22;;;;;19.30;95773.00;;;;8340180;28;20737;-63
2023/10/14 07:58:19;;;;;;;6.30;3.42;;;;;19.50;95775.00;;;;8338616;28;20334;-63
2023/10/14 08:02:25;;;;;;;4.82;3.17;;;;;19.60;95780.00;;;;8337354;28;20279;-65
2023/10/14 08:06:31;;;;;;;9.70;3.22;;;;;19.70;95785.00;;;;8341529;28;20871;-63
2023/10/14 08:10:34;;;;;;;6.60;3.50;;;;;19.80;95787.00;;;;8341252;28;20193;-63
2023/10/14 08:14:39;;;;;;;4.72;3.10;;;;;19.70;95797.00;;;;8341471;28;20204;-63
2023/10/14 08:18:42;;;;;;;6.43;3.28;;;;;19.60;95805.00;;;;8340439;28;20193;-64
2023/10/14 08:22:46;;;;;;;6.13;3.55;;;;;19.60;95808.00;;;;8344649;28;20316;-63
2023/10/14 08:26:49;;;;;;;4.25;3.13;;;;;19.50;95805.00;;;;8337148;28;20815;-63
2023/10/14 08:30:55;;;;;;;7.97;3.13;;;;;19.50;95795.00;;;;8343605;28;20813;-65
2023/10/14 08:34:58;;;;;;;9.05;3.40;;;;;19.40;95804.00;;;;8333410;28;20684;-65
2023/10/14 08:39:03;;;;;;;5.43;3.10;;;;;19.40;95795.00;;;;8341334;28;20200;-65
2023/10/14 08:43:07;;;;;;;6.30;3.15;;;;;19.50;95788.00;;;;8340343;28;20228;-65
2023/10/14 08:47:14;;;;;;;6.25;3.22;;;;;19.70;95798.00;;;;8341545;28;20200;-64
2023/10/14 08:51:19;;;;;;;7.03;3.38;;;;;19.70;95808.00;;;;8340573;28;20900;-65
2023/10/14 08:55:22;;;;;;;5.22;3.22;;;;;19.80;95804.00;;;;8339712;28;20739;-65
2023/10/14 08:59:26;;;;;;;4.80;3.33;;;;;20.00;95802.00;;;;8338163;28;20208;-65
2023/10/14 09:03:31;;;;;;;7.13;3.33;;;;;20.00;95804.00;;;;8333320;28;20311;-64
2023/10/14 09:07:38;;;;;;;5.65;3.28;;;;;20.00;95793.00;;;;8335692;28;20200;-64
2023/10/14 09:11:41;;;;;;;5.57;3.60;;;;;20.10;95804.00;;;;8339714;28;20224;-65
2023/10/14 09:15:45;;;;;;;7.88;3.17;;;;;20.10;95811.00;;;;8340502;28;20231;-64
2023/10/14 09:19:50;;;;;;;8.50;3.90;;;;;20.20;95811.00;;;;8348416;28;20247;-64
2023/10/14 09:23:53;;;;;;;4.32;3.55;;;;;20.40;95804.00;;;;8342763;28;20287;-65
2023/10/14 09:27:56;;;;;;;9.95;3.28;;;;;20.40;95806.00;;;;8335919;28;20909;-62
2023/10/14 09:32:00;;;;;;;4.35;3.45;;;;;20.50;95816.00;;;;8340669;28;20197;-62
2023/10/14 09:36:06;;;;;;;5.10;3.38;;;;;20.80;95819.00;;;;8350246;28;20226;-62
2023/10/14 09:40:13;;;;;;;6.88;3.72;;;;;20.90;95818.00;;;;8336365;28;20228;-63
2023/10/14 09:44:17;;;;;;;6.03;3.38;;;;;21.00;95833.00;;;;8343361;28;20239;-62
2023/10/14 09:48:24;;;;;;;6.63;2.90;;;;;20.90;95820.00;;;;8334795;28;20199;-63
2023/10/14 09:52:29;;;;;;;5.20;3.45;;;;;21.00;95814.00;;;;8345853;28;20228;-62
2023/10/14 09:56:36;;;;;;;7.28;3.10;;;;;21.40;95803.00;;;;8346985;28;20204;-63
2023/10/14 10:00:47;;;;;;;3.13;2.72;;;;;21.70;95814.00;;;;8342925;28;20263;-62
2023/10/14 10:04:52;;;;;;;6.85;2.95;;;;;21.80;95810.00;;;;8337736;28;20244;-63
2023/10/14 10:09:08;;;;;;;4.53;2.53;;;;;21.80;95820.00;;;;8346265;28;20291;-63
2023/10/14 10:13:12;;;;;;;2.58;1.92;;;;;21.90;95818.00;;;;8343920;28;20285;-61
2023/10/14 10:17:16;;;;;;;3.85;2.25;;;;;21.70;95810.00;;;;8344199;28;20193;-61
2023/10/14 10:21:20;;;;;;;8.60;3.75;;;;;21.60;95807.00;;;;8345244;28;20224;-61
2023/10/14 10:25:49;;;;;;;5.05;3.05;;;;;21.40;95799.00;;;;8346207;28;20200;-61
2023/10/14 10:29:56;;;;;;;3.13;2.40;;;;;21.40;95789.00;;;;8346971;28;20239;-61
2023/10/14 10:34:02;;;;;;;2.55;2.35;;;;;21.80;95779.00;;;;8345332;28;21766;-60
2023/10/14 10:38:10;;;;;;;6.03;2.30;;;;;22.40;95789.00;;;;8344000;28;20205;-61
2023/10/14 10:42:15;;;;;;;2.17;2.00;;;;;23.40;95781.00;;;;8346433;28;20307;-61
2023/10/14 10:46:38;;;;;;;1.63;1.50;;;;;23.90;95787.00;;;;8347400;28;20200;-61
2023/10/14 10:50:43;;;;;;;2.75;1.00;;;;;24.10;95807.00;;;;8347180;28;20204;-62
2023/10/14 10:54:47;;;;;;;1.70;0.90;;;;;23.60;95795.00;;;;8344187;28;20299;-61
2023/10/14 10:58:52;;;;;;;2.13;0.85;;;;;23.30;95798.00;;;;8348144;28;20561;-62
2023/10/14 11:02:55;;;;;;;1.15;0.68;;;;;22.70;95810.00;;;;8344388;28;20719;-61
2023/10/14 11:07:00;;;;;;;0.80;0.80;;;;;21.70;95817.00;;;;8342523;28;20197;-66
2023/10/14 11:11:03;;;;;;;1.88;1.02;;;;;20.90;95816.00;;;;8343171;28;20219;-64
2023/10/14 11:15:19;;;;;;;1.17;0.82;;;;;20.40;95819.00;;;;8344934;28;20251;-63
2023/10/14 11:19:22;;;;;;;2.15;0.80;;;;;19.40;95834.00;;;;8342680;28;20204;-64
2023/10/14 11:23:28;;;;;;;7.53;1.10;;;;;18.60;95840.00;;;;8340642;28;20225;-69
2023/10/14 11:27:31;;;;;;;1.27;0.82;;;;;18.00;95838.00;;;;8340982;28;20197;-68
2023/10/14 11:31:36;;;;;;;1.48;0.90;;;;;17.40;95844.00;;;;8346810;28;20773;-70
2023/10/14 11:35:40;;;;;;;4.18;0.80;;;;;16.90;95848.00;;;;8338723;28;20581;-73
2023/10/14 11:39:44;;;;;;;2.00;0.88;;;;;16.60;95847.00;;;;8339558;28;20217;-73
2023/10/14 11:43:47;;;;;;;0.88;0.88;;;;;16.30;95848.00;;;;8344240;28;20259;-74
2023/10/14 11:47:52;;;;;;;1.00;1.00;;;;;16.00;95836.00;;;;8342374;28;20197;-74
2023/10/14 11:51:55;;;;;;;0.93;0.93;;;;;15.80;95842.00;;;;8341709;28;20235;-73
2023/10/14 11:56:01;;;;;;;1.08;1.08;;;;;15.80;95841.00;;;;8337993;28;20220;-79
2023/10/14 12:00:10;;;;;;;2.20;1.13;;;;;16.00;95827.00;;;;8346575;28;20236;-72
2023/10/14 12:04:15;;;;;;;0.90;0.90;;;;;16.30;95841.00;;;;8335672;28;20237;-68
2023/10/14 12:08:22;;;;;;;1.27;1.17;;;;;16.40;95841.00;;;;8340139;28;20216;-71
2023/10/14 12:12:25;;;;;;;1.48;1.02;;;;;16.50;95841.00;;;;8342043;28;20201;-69
2023/10/14 12:16:28;;;;;;;1.10;1.10;;;;;16.60;95840.00;;;;8333777;28;21612;-69
2023/10/14 12:20:34;;;;;;;1.40;1.30;;;;;16.50;95824.00;;;;8345690;28;20218;-68
2023/10/14 12:24:37;;;;;;;1.60;1.05;;;;;16.30;95834.00;;;;8325013;28;20232;-68
2023/10/14 12:28:40;;;;;;;1.20;1.20;;;;;16.20;95844.00;;;;8329650;28;20204;-68
2023/10/14 12:32:46;;;;;;;1.17;1.15;;;;;16.10;95840.00;;;;8336144;28;20197;-67
2023/10/14 12:36:52;;;;;;;2.47;1.20;;;;;15.90;95848.00;;;;8329482;28;20207;-68
2023/10/14 12:40:55;;;;;;;6.15;1.35;;;;;15.70;95849.00;;;;8331643;28;20771;-69
2023/10/14 12:45:10;;;;;;;1.52;1.33;;;;;15.60;95861.00;;;;8333081;28;20303;-68
2023/10/14 12:49:18;;;;;;;2.45;1.35;;;;;15.50;95865.00;;;;8342093;28;20232;-72
2023/10/14 12:53:24;;;;;;;1.52;1.42;;;;;15.50;95850.00;;;;8341235;28;20256;-71
2023/10/14 12:57:27;;;;;;;1.83;1.58;;;;;15.30;95852.00;;;;8335923;28;20208;-79
2023/10/14 13:01:33;;;;;;;2.25;1.65;;;;;15.20;95848.00;;;;8336590;28;20232;-71
2023/10/14 13:05:38;;;;;;;1.80;1.65;;;;;15.10;95841.00;;;;8329704;28;20196;-72
2023/10/14 13:09:43;;;;;;;2.90;1.92;;;;;15.10;95857.00;;;;8334809;28;20294;-76
2023/10/14 13:13:50;;;;;;;6.18;2.08;;;;;15.10;95856.00;;;;8334809;28;20220;-74
2023/10/14 13:17:56;;;;;;;4.00;1.60;;;;;15.10;95856.00;;;;8338851;28;20208;-71
2023/10/14 13:21:59;;;;;;;1.88;1.75;;;;;15.10;95859.00;;;;8327305;28;20241;-70
2023/10/14 13:26:05;;;;;;;4.82;1.75;;;;;15.10;95849.00;;;;8334203;28;20734;-69
2023/10/14 13:30:15;;;;;;;3.50;1.73;;;;;15.10;95841.00;;;;8333402;28;20631;-69
2023/10/14 13:34:19;;;;;;;1.67;1.58;;;;;15.10;95849.00;;;;8330186;28;20236;-75
2023/10/14 13:38:23;;;;;;;1.77;1.67;;;;;15.10;95862.00;;;;8334181;28;20208;-83
2023/10/14 13:42:27;;;;;;;3.58;1.30;;;;;15.00;95867.00;;;;8334556;28;20328;-79
2023/10/14 13:46:31;;;;;;;1.90;1.15;;;;;15.00;95863.00;;;;8327888;28;20192;-74
2023/10/14 13:50:37;;;;;;;3.20;1.48;;;;;15.00;95866.00;;;;8330758;28;20288;-70
2023/10/14 13:54:41;;;;;;;1.70;1.60;;;;;15.10;95875.00;;;;8333791;28;20198;-70
2023/10/14 13:58:48;;;;;;;1.40;1.30;;;;;15.00;95877.00;;;;8330714;28;20193;-70
2023/10/14 14:02:51;;;;;;;1.48;1.40;;;;;15.00;95873.00;;;;8343550;28;20229;-68
2023/10/14 14:06:54;;;;;;;1.42;1.33;;;;;14.90;95880.00;;;;8344570;28;20893;-71
2023/10/14 14:11:00;;;;;;;3.83;1.60;;;;;14.80;95882.00;;;;8337195;28;20205;-77
2023/10/14 14:15:07;;;;;;;1.98;1.55;;;;;14.80;95877.00;;;;8338427;28;20201;-75
2023/10/14 14:19:11;;;;;;;1.52;1.45;;;;;14.80;95881.00;;;;8351085;28;20236;-74
2023/10/14 14:23:16;;;;;;;1.90;1.55;;;;;14.90;95894.00;;;;8349514;28;20900;-71
2023/10/14 14:27:19;;;;;;;1.80;1.70;;;;;15.00;95881.00;;;;8338236;28;20205;-73
2023/10/14 14:31:27;;;;;;;1.60;1.50;;;;;15.10;95874.00;;;;8345256;28;20232;-75
2023/10/14 14:35:31;;;;;;;4.00;1.80;;;;;15.20;95871.00;;;;8347628;28;20274;-75
2023/10/14 14:39:34;;;;;;;1.83;1.55;;;;;15.20;95875.00;;;;8346382;28;20236;-80
2023/10/14 14:43:38;;;;;;;2.20;1.40;;;;;15.20;95863.00;;;;8344185;28;20880;-75
2023/10/14 14:47:43;;;;;;;2.60;1.60;;;;;15.30;95856.00;;;;8336941;28;20244;-72
2023/10/14 14:51:46;;;;;;;2.50;1.48;;;;;15.30;95865.00;;;;8336521;28;20197;-70
2023/10/14 14:55:49;;;;;;;1.60;1.50;;;;;15.30;95876.00;;;;8345664;28;20283;-68
2023/10/14 14:59:55;;;;;;;1.73;1.63;;;;;15.20;95896.00;;;;8327947;28;20193;-67
2023/10/14 15:04:00;;;;;;;2.25;2.10;;;;;15.10;95908.00;;;;8340625;28;20228;-67
2023/10/14 15:08:04;;;;;;;3.22;1.50;;;;;15.10;95915.00;;;;8341091;28;20205;-69
2023/10/14 15:12:07;;;;;;;10.48;4.50;;;;;14.90;95913.00;;;;8334540;28;20200;-80
2023/10/14 15:16:11;;;;;;;4.43;2.25;;;;;14.90;95916.00;;;;8343218;28;20874;-80
2023/10/14 15:20:17;;;;;;;17.80;6.50;;;;;14.90;95897.00;;;;8340429;28;20247;-75
2023/10/14 15:24:21;;;;;;;3.20;2.80;;;;;14.90;95916.00;;;;8336452;28;21110;-72
2023/10/14 15:28:24;;;;;;;2.95;1.98;;;;;14.90;95915.00;;;;8333708;28;20295;-72
2023/10/14 15:32:28;;;;;;;2.53;2.30;;;;;14.90;95910.00;;;;8339950;28;20232;-72
2023/10/14 15:36:32;;;;;;;7.28;4.55;;;;;14.80;95909.00;;;;8334109;28;20192;-73
2023/10/14 15:40:36;;;;;;;3.22;2.38;;;;;14.80;95905.00;;;;8327159;28;20216;-71
2023/10/14 15:44:39;;;;;;;2.88;1.98;;;;;14.80;95916.00;;;;8339268;28;20302;-72
2023/10/14 15:48:42;;;;;;;1.92;1.77;;;;;14.80;95930.00;;;;8337158;28;20711;-71
2023/10/14 15:52:48;;;;;;;2.00;1.90;;;;;14.60;95945.00;;;;8347170;28;20288;-70
2023/10/14 15:56:52;;;;;;;1.70;1.60;;;;;14.40;95951.00;;;;8335099;28;20197;-68
2023/10/14 16:00:57;;;;;;;4.82;2.05;;;;;14.20;95941.00;;;;8333216;28;20287;-68
2023/10/14 16:05:00;;;;;;;2.35;2.00;;;;;14.00;95950.00;;;;8326423;28;20229;-67
2023/10/14 16:09:06;;;;;;;4.47;1.92;;;;;13.90;95959.00;;;;8337177;28;20650;-67
2023/10/14 16:13:10;;;;;;;2.83;2.10;;;;;13.80;95984.00;;;;8335100;28;20228;-68
2023/10/14 16:17:16;;;;;;;5.57;2.60;;;;;13.80;95976.00;;;;8334491;28;20342;-69
2023/10/14 16:21:19;;;;;;;3.83;2.53;;;;;13.80;95981.00;;;;8334494;28;20254;-68
2023/10/14 16:25:25;;;;;;;6.70;2.63;;;;;13.70;95991.00;;;;8340256;28;20223;-68
2023/10/14 16:29:28;;;;;;;8.98;2.70;;;;;13.60;95992.00;;;;8340177;28;20741;-68
2023/10/14 16:33:32;;;;;;;3.10;2.70;;;;;13.50;96004.00;;;;8325039;28;20255;-68
2023/10/14 16:37:35;;;;;;;3.60;2.33;;;;;13.50;96023.00;;;;8334810;28;20224;-68
2023/10/14 16:41:41;;;;;;;5.22;3.10;;;;;13.50;96037.00;;;;8337095;28;20220;-68
2023/10/14 16:45:46;;;;;;;9.02;3.38;;;;;13.50;96053.00;;;;8334644;28;20262;-68
2023/10/14 16:49:50;;;;;;;6.65;3.17;;;;;13.50;96058.00;;;;8334830;28;20226;-67
2023/10/14 16:53:54;;;;;;;36.15;21.20;;;;;13.50;96061.00;;;;8331328;28;20196;-68
2023/10/14 16:57:59;;;;;;;31.83;17.17;;;;;13.40;96056.00;;;;8341540;28;20283;-67
2023/10/14 17:02:03;;;;;;;13.88;6.55;;;;;13.40;96050.00;;;;8324583;28;20343;-67
2023/10/14 17:06:06;;;;;;;82.78;65.13;;;;;13.30;96065.00;;;;8340612;28;20232;-67
2023/10/14 17:10:14;;;;;;;7.18;3.60;;;;;13.30;96070.00;;;;8334060;28;20633;-67
2023/10/14 17:14:18;;;;;;;7.65;4.07;;;;;13.30;96082.00;;;;8342734;28;20205;-67
2023/10/14 17:18:22;;;;;;;8.15;4.55;;;;;13.30;96097.00;;;;8337160;28;20234;-67
2023/10/14 17:22:27;;;;;;;11.82;4.70;;;;;13.20;96090.00;;;;8344838;28;20366;-68
2023/10/14 17:26:30;;;;;;;166.50;125.03;;;;;13.20;96106.00;;;;8336568;28;20231;-67
2023/10/14 17:30:35;;;;;;;41.70;22.77;;;;;13.10;96105.00;;;;8337919;28;20199;-67
2023/10/14 17:34:38;;;;;;;9.60;5.60;;;;;13.00;96127.00;;;;8348236;28;20207;-68
2023/10/14 17:38:42;;;;;;;5.63;3.60;;;;;12.90;96130.00;;;;8349954;28;20235;-68
2023/10/14 17:42:51;;;;;;;11.02;3.95;;;;;12.80;96138.00;;;;8346322;28;20202;-69
2023/10/14 17:46:56;;;;;;;12.48;4.10;;;;;12.80;96146.00;;;;8347359;28;20239;-67
2023/10/14 17:50:59;;;;;;;13.45;4.50;;;;;12.70;96152.00;;;;8350008;28;20338;-67
2023/10/14 17:55:10;;;;;;;10.15;4.03;;;;;12.70;96147.00;;;;8347568;28;20819;-67
2023/10/14 17:59:14;;;;;;;11.80;3.47;;;;;12.60;96143.00;;;;8352684;28;20667;-67
2023/10/14 18:03:20;;;;;;;5.82;3.60;;;;;12.40;96148.00;;;;8346484;28;20259;-67
2023/10/14 18:07:24;;;;;;;9.52;4.03;;;;;12.30;96171.00;;;;8350750;28;20207;-66
2023/10/14 18:11:28;;;;;;;9.95;3.95;;;;;12.30;96171.00;;;;8348622;28;20200;-67
2023/10/14 18:15:32;;;;;;;21.42;10.43;;;;;12.30;96188.00;;;;8336645;28;20196;-68
2023/10/14 18:19:39;;;;;;;65.70;32.70;;;;;12.40;96194.00;;;;8348288;28;20266;-67
2023/10/14 18:23:43;;;;;;;31.58;11.27;;;;;12.50;96205.00;;;;8343240;28;20517;-67
2023/10/14 18:27:46;;;;;;;662.95;310.38;;;;;12.50;96206.00;;;;8332966;28;20316;-67
2023/10/14 18:31:53;;;;;;;45.75;24.13;;;;;12.50;96215.00;;;;8318385;28;20293;-67
2023/10/14 18:36:07;;;;;;;34.70;14.55;;;;;12.50;96215.00;;;;8314797;28;20228;-67
2023/10/14 18:40:13;;;;;;;18.08;7.25;;;;;12.50;96221.00;;;;8321779;28;20201;-66
2023/10/14 18:44:17;;;;;;;12.57;6.40;;;;;12.50;96233.00;;;;8318318;28;20259;-66
2023/10/14 18:48:20;;;;;;;18.20;5.53;;;;;12.50;96235.00;;;;8314024;28;20201;-66
2023/10/14 18:52:26;;;;;;;15.15;5.47;;;;;12.50;96241.00;;;;8314808;28;20251;-66
2023/10/14 18:56:30;;;;;;;17.50;5.07;;;;;12.40;96244.00;;;;8314198;28;20266;-66
2023/10/14 19:00:37;;;;;;;14.55;5.10;;;;;12.30;96245.00;;;;8317112;28;20711;-66
2023/10/14 19:04:42;;;;;;;16.48;4.65;;;;;12.20;96253.00;;;;8313513;28;20240;-66
2023/10/14 19:08:47;;;;;;;19.48;4.47;;;;;12.00;96261.00;;;;8316411;28;20209;-66
2023/10/14 19:12:53;;;;;;;14.15;4.32;;;;;11.90;96261.00;;;;8315180;28;20205;-66
2023/10/14 19:16:56;;;;;;;10.63;4.45;;;;;11.70;96270.00;;;;8315723;28;20211;-66
2023/10/14 19:21:02;;;;;;;12.43;4.07;;;;;11.60;96281.00;;;;8320379;28;20673;-66
2023/10/14 19:25:10;;;;;;;10.73;3.78;;;;;11.40;96279.00;;;;8313730;28;20286;-66
2023/10/14 19:29:13;;;;;;;14.00;3.80;;;;;11.30;96286.00;;;;8323789;28;20233;-66
2023/10/14 19:33:18;;;;;;;7.25;3.60;;;;;11.10;96293.00;;;;8318957;28;20206;-66
2023/10/14 19:37:21;;;;;;;8.23;3.67;;;;;11.00;96305.00;;;;8318419;28;20258;-66
2023/10/14 19:41:26;;;;;;;9.27;3.42;;;;;10.80;96309.00;;;;8317014;28;20243;-66
2023/10/14 19:45:30;;;;;;;16.38;3.50;;;;;10.70;96303.00;;;;8314655;28;20237;-65
2023/10/14 19:49:35;;;;;;;7.22;3.28;;;;;10.50;96323.00;;;;8316131;28;20658;-66
2023/10/14 19:53:54;;;;;;;8.85;3.20;;;;;10.40;96317.00;;;;8313511;28;20198;-65
2023/10/14 19:58:02;;;;;;;8.95;3.30;;;;;10.30;96325.00;;;;8313834;28;20193;-66
2023/10/14 20:02:06;;;;;;;13.30;3.75;;;;;10.20;96337.00;;;;8311165;28;20901;-66
2023/10/14 20:06:16;;;;;;;12.88;3.30;;;;;10.10;96344.00;;;;8319447;28;20237;-65
2023/10/14 20:10:23;;;;;;;6.73;3.20;;;;;10.10;96346.00;;;;8315657;28;20197;-65
2023/10/14 20:14:27;;;;;;;8.03;3.40;;;;;10.10;96345.00;;;;8314079;28;20287;-65
2023/10/14 20:18:32;;;;;;;10.13;3.45;;;;;10.10;96356.00;;;;8312237;28;20681;-65
2023/10/14 20:22:36;;;;;;;12.40;3.73;;;;;10.10;96353.00;;;;8314907;28;20208;-67
2023/10/14 20:26:40;;;;;;;11.30;4.10;;;;;10.20;96360.00;;;;8324325;28;20227;-67